South Hero, Vermont
Current Conditions -  °F | °C
As of 2:53 AM on Friday 24 Oct 2014 (Local Time) from KPBG Reporting Station
Haze Haze  
Wind Chill: 36°   Ceiling: 900
Heat Index: 43°   Visibility: 5mi
Dew Point: 41°   Wind: 14mph
Humidity: 93%   Direction: 330°NNW
Pressure: 29.86"   Gusts: NA
Location:  44.65°N, 73.3°W
Report Text: KPBG 240653Z AUTO 33012KT 5SM BR OVC009 06/05 A2986 RMK AO2 CIG 007V012 SLP114 T00610050
Loading
Personal Weather Stations






























Interactive Weather Map
Tropical Storm Tracking
New forecast layout! Learn more

10-Day Weather Forecast

Advertisements
Track Severe Weather on mobile